Time;durP1;ratioP1;P1;durP2;ratioP2;P2;SDS_P1;SDS_P2;PMS_P1;PMS_P2;Temp;Humidity;BMP_temperature;BMP_pressure;BME280_temperature;BME280_humidity;BME280_pressure;Samples;Min_cycle;Max_cycle;Signal;HPM_P1;HPM_P2
2021/12/04 00:02:21;;;;;;;;;;;;;;;3.20;89.45;99504.94;4989136;28;19946;-78
2021/12/04 00:04:49;;;;;;;;;;;;;;;3.17;89.68;99484.28;4985629;28;19935;-78
2021/12/04 00:07:14;;;;;;;;;;;;;;;3.14;89.61;99484.53;4990887;28;20017;-79
2021/12/04 00:09:39;;;;;;;;;;;;;;;3.08;90.35;99485.84;4983456;28;20943;-78
2021/12/04 00:12:06;;;;;;;;;;;;;;;3.08;90.71;99483.22;4994210;28;20873;-78
2021/12/04 00:14:32;;;;;;;;;;;;;;;3.09;90.67;99480.47;5002007;28;19892;-78
2021/12/04 00:16:57;;;;;;;;;;;;;;;3.09;90.73;99474.44;4988877;28;19896;-78
2021/12/04 00:19:23;;;;;;;;;;;;;;;3.06;90.62;99465.03;5004969;27;20750;-77
2021/12/04 00:21:48;;;;;;;;;;;;;;;3.13;90.65;99467.16;4983610;28;20121;-78
2021/12/04 00:24:13;;;;;;;;;;;;;;;3.08;90.93;99465.75;5008430;27;20277;-77
2021/12/04 00:26:38;;;;;;;;;;;;;;;3.15;90.87;99462.66;5001858;27;19908;-78
2021/12/04 00:29:04;;;;;;;;;;;;;;;3.11;90.56;99451.59;4999747;27;19936;-78
2021/12/04 00:31:29;;;;;;;;;;;;;;;3.05;90.65;99463.38;5018997;27;19912;-78
2021/12/04 00:33:55;;;;;;;;;;;;;;;3.07;90.93;99455.41;5017637;27;19951;-78
2021/12/04 00:50:02;;;;;;;;;;;;;;;2.99;90.95;99445.56;4977250;28;19945;-78
2021/12/04 00:52:27;;;;;;;;;;;;;;;2.98;91.16;99443.09;5027483;27;19995;-78
2021/12/04 00:54:52;;;;;;;;;;;;;;;3.01;91.13;99448.88;5011899;27;20169;-79
2021/12/04 00:57:18;;;;;;;;;;;;;;;3.05;91.31;99434.63;5012330;27;20169;-79
2021/12/04 00:59:43;;;;;;;;;;;;;;;3.06;91.67;99435.44;5011167;27;20238;-78
2021/12/04 01:02:08;;;;;;;;;;;;;;;3.01;91.26;99430.59;5009618;27;20113;-78
2021/12/04 01:04:33;;;;;;;;;;;;;;;3.01;91.42;99422.75;5010131;27;19948;-78
2021/12/04 01:06:59;;;;;;;;;;;;;;;3.06;91.32;99431.06;5007673;27;20016;-78
2021/12/04 01:09:24;;;;;;;;;;;;;;;2.93;91.72;99419.91;5008609;27;20069;-78
2021/12/04 01:11:49;;;;;;;;;;;;;;;2.97;91.46;99421.31;5001950;28;19908;-78
2021/12/04 01:14:16;;;;;;;;;;;;;;;2.96;91.56;99424.91;5009993;27;20062;-78
2021/12/04 01:16:41;;;;;;;;;;;;;;;2.99;91.47;99415.97;5013158;27;20102;-78
2021/12/04 01:19:06;;;;;;;;;;;;;;;2.96;91.79;99413.63;4992247;27;20160;-78
2021/12/04 01:21:31;;;;;;;;;;;;;;;2.96;91.97;99416.22;5007784;27;19956;-78
2021/12/04 01:23:57;;;;;;;;;;;;;;;3.02;91.41;99413.16;5003176;27;20241;-78
2021/12/04 01:26:22;;;;;;;;;;;;;;;3.02;91.55;99411.34;5003136;27;19911;-78
2021/12/04 01:28:48;;;;;;;;;;;;;;;3.03;91.41;99405.19;4993232;27;19934;-79
2021/12/04 01:31:13;;;;;;;;;;;;;;;2.98;91.72;99403.88;5013177;27;19914;-78
2021/12/04 01:33:38;;;;;;;;;;;;;;;3.03;91.50;99399.97;4992382;27;20622;-77
2021/12/04 01:36:03;;;;;;;;;;;;;;;3.00;91.57;99400.19;4982620;28;20342;-77
2021/12/04 01:38:29;;;;;;;;;;;;;;;2.97;91.34;99405.66;4987552;28;20267;-77
2021/12/04 01:40:54;;;;;;;;;;;;;;;2.99;91.75;99398.53;4993899;27;19911;-77
2021/12/04 01:43:19;;;;;;;;;;;;;;;3.00;92.01;99384.50;4993641;27;20035;-77
2021/12/04 01:45:44;;;;;;;;;;;;;;;2.99;91.82;99389.84;5028869;27;19948;-77
2021/12/04 01:48:09;;;;;;;;;;;;;;;3.03;91.73;99378.19;5011008;27;20380;-78
2021/12/04 01:50:35;;;;;;;;;;;;;;;3.05;91.50;99376.31;5010230;27;20432;-78
2021/12/04 01:53:01;;;;;;;;;;;;;;;3.02;91.64;99377.38;5011697;27;20427;-77
2021/12/04 01:55:26;;;;;;;;;;;;;;;3.04;91.98;99374.66;5009869;27;20278;-77
2021/12/04 01:57:51;;;;;;;;;;;;;;;3.03;91.64;99373.81;5011314;27;20069;-78
2021/12/04 02:00:17;;;;;;;;;;;;;;;3.06;91.44;99370.97;5010071;27;20182;-78
2021/12/04 02:02:42;;;;;;;;;;;;;;;3.05;91.63;99379.75;5012660;27;20122;-78
2021/12/04 02:05:07;;;;;;;;;;;;;;;3.02;91.46;99377.38;5009858;27;20422;-78
2021/12/04 02:07:32;;;;;;;;;;;;;;;3.03;91.62;99365.97;5001824;27;20505;-78
2021/12/04 02:09:58;;;;;;;;;;;;;;;3.01;91.68;99372.28;5009535;27;20188;-77
2021/12/04 02:12:23;;;;;;;;;;;;;;;2.98;91.85;99373.34;5010805;27;20211;-78
2021/12/04 02:14:48;;;;;;;;;;;;;;;3.07;91.61;99362.19;4993866;27;20161;-77
2021/12/04 02:17:13;;;;;;;;;;;;;;;3.11;91.56;99365.34;4994429;27;19903;-78
2021/12/04 02:19:39;;;;;;;;;;;;;;;3.07;91.13;99364.78;4996003;28;20362;-78
2021/12/04 02:22:05;;;;;;;;;;;;;;;3.12;91.24;99356.56;4990631;28;20204;-78
2021/12/04 02:24:30;;;;;;;;;;;;;;;3.14;91.36;99346.81;5007679;28;20397;-77
2021/12/04 02:26:55;;;;;;;;;;;;;;;3.18;91.00;99344.78;5008874;27;20321;-78
2021/12/04 02:29:20;;;;;;;;;;;;;;;3.22;90.64;99340.97;5009977;27;20327;-78
2021/12/04 02:31:49;;;;;;;;;;;;;;;3.21;90.78;99340.13;4992306;27;19915;-77
2021/12/04 02:34:32;;;;;;;;;;;;;;;3.17;90.73;99330.06;4998166;27;20328;-77
2021/12/04 02:36:58;;;;;;;;;;;;;;;3.12;91.13;99327.81;5007106;28;20320;-78
2021/12/04 02:39:25;;;;;;;;;;;;;;;3.04;91.07;99325.81;5006557;28;20275;-78
2021/12/04 02:41:50;;;;;;;;;;;;;;;3.08;91.33;99329.84;4965919;28;20070;-78
2021/12/04 02:44:16;;;;;;;;;;;;;;;3.12;91.36;99319.13;4991203;28;19916;-77
2021/12/04 02:46:41;;;;;;;;;;;;;;;3.11;91.00;99320.91;4990059;28;19908;-78
2021/12/04 02:49:07;;;;;;;;;;;;;;;3.17;90.85;99307.34;4991253;28;20311;-79
2021/12/04 02:51:32;;;;;;;;;;;;;;;3.15;91.10;99314.50;4990263;28;20366;-78
2021/12/04 02:53:58;;;;;;;;;;;;;;;3.11;91.11;99302.63;4974495;28;20192;-78
2021/12/04 02:56:25;;;;;;;;;;;;;;;3.11;91.70;99302.63;4991483;28;20393;-78
2021/12/04 02:58:53;;;;;;;;;;;;;;;3.06;91.22;99289.09;4989862;28;19908;-79
2021/12/04 03:01:18;;;;;;;;;;;;;;;3.07;91.45;99275.94;5005907;28;19976;-78
2021/12/04 03:03:43;;;;;;;;;;;;;;;3.07;91.70;99291.59;4972181;28;20279;-78
2021/12/04 03:06:09;;;;;;;;;;;;;;;3.07;92.00;99281.16;4988452;28;19947;-78
2021/12/04 03:08:34;;;;;;;;;;;;;;;3.11;92.09;99281.72;4985410;28;19969;-78
2021/12/04 03:10:59;;;;;;;;;;;;;;;3.14;92.10;99273.63;4987037;28;20292;-79
2021/12/04 03:13:24;;;;;;;;;;;;;;;3.13;91.85;99264.16;4972709;28;20270;-79
2021/12/04 03:15:56;;;;;;;;;;;;;;;3.13;91.80;99269.38;4988807;28;20273;-78
2021/12/04 03:18:22;;;;;;;;;;;;;;;3.17;92.12;99264.69;4973113;28;20234;-78
2021/12/04 03:20:47;;;;;;;;;;;;;;;3.11;91.77;99263.44;4989656;28;19900;-78
2021/12/04 03:23:18;;;;;;;;;;;;;;;3.14;91.73;99270.19;5008076;28;19974;-78
2021/12/04 03:25:47;;;;;;;;;;;;;;;3.11;91.38;99265.22;4976107;28;20208;-78
2021/12/04 03:28:15;;;;;;;;;;;;;;;3.05;91.59;99264.75;5009475;28;20916;-78
2021/12/04 03:30:52;;;;;;;;;;;;;;;3.09;91.82;99258.31;4991432;28;20234;-78
2021/12/04 03:41:17;;;;;;;;;;;;;;;3.14;91.92;99230.97;5013809;28;20032;-77
2021/12/04 03:43:43;;;;;;;;;;;;;;;3.18;91.13;99224.56;4983990;28;19924;-77
2021/12/04 03:46:13;;;;;;;;;;;;;;;3.16;90.92;99208.16;4980668;27;19915;-77
2021/12/04 03:51:04;;;;;;;;;;;;;;;3.10;91.27;99201.66;5011048;27;19915;-80
2021/12/04 03:53:29;;;;;;;;;;;;;;;3.02;91.53;99198.88;4993971;27;20227;-78
2021/12/04 03:55:55;;;;;;;;;;;;;;;3.00;92.12;99201.56;4980462;28;19949;-78
2021/12/04 03:58:20;;;;;;;;;;;;;;;3.04;91.82;99199.56;4992028;27;20012;-77
2021/12/04 04:00:45;;;;;;;;;;;;;;;2.98;91.48;99195.66;5007575;27;20203;-77
2021/12/04 04:03:10;;;;;;;;;;;;;;;3.00;91.49;99192.91;5010604;27;20502;-77
2021/12/04 04:05:36;;;;;;;;;;;;;;;3.00;91.95;99196.34;4984276;28;20028;-77
2021/12/04 04:08:01;;;;;;;;;;;;;;;2.99;91.87;99199.94;4976364;28;20074;-78
2021/12/04 04:10:26;;;;;;;;;;;;;;;3.03;92.18;99197.88;4973947;28;20692;-80
2021/12/04 04:12:51;;;;;;;;;;;;;;;3.03;91.89;99201.34;4990227;27;20878;-77
2021/12/04 04:15:17;;;;;;;;;;;;;;;3.09;92.18;99202.63;5010337;27;19916;-79
2021/12/04 04:17:43;;;;;;;;;;;;;;;3.13;91.98;99196.19;5009792;27;19964;-80
2021/12/04 04:20:17;;;;;;;;;;;;;;;3.13;91.80;99188.34;5025286;27;19908;-77
2021/12/04 04:22:43;;;;;;;;;;;;;;;3.17;91.44;99181.06;5011825;27;20182;-80
2021/12/04 04:25:08;;;;;;;;;;;;;;;3.16;91.38;99188.09;5014421;27;19908;-79
2021/12/04 04:27:33;;;;;;;;;;;;;;;3.14;91.41;99191.78;5021067;28;20466;-77
2021/12/04 04:29:58;;;;;;;;;;;;;;;3.15;91.13;99189.03;5001126;28;20222;-79
2021/12/04 04:32:24;;;;;;;;;;;;;;;3.20;91.04;99188.66;4992504;28;20398;-79
2021/12/04 04:34:53;;;;;;;;;;;;;;;3.21;91.19;99180.66;4990680;28;20389;-79
2021/12/04 05:12:23;;;;;;;;;;;;;;;3.39;90.95;99160.00;5028250;27;20641;-77
2021/12/04 05:14:54;;;;;;;;;;;;;;;3.37;90.54;99154.09;4982553;28;19938;-79
2021/12/04 05:19:54;;;;;;;;;;;;;;;3.30;90.18;99147.72;4994701;28;20388;-79
2021/12/04 05:22:20;;;;;;;;;;;;;;;3.31;90.36;99143.31;4989321;28;20259;-79
2021/12/04 05:24:45;;;;;;;;;;;;;;;3.31;90.67;99135.47;4991396;28;20064;-79
2021/12/04 05:27:10;;;;;;;;;;;;;;;3.32;90.42;99132.72;4992065;28;20368;-79
2021/12/04 05:29:36;;;;;;;;;;;;;;;3.29;90.51;99127.75;5002700;27;20439;-80
2021/12/04 05:32:01;;;;;;;;;;;;;;;3.30;91.01;99132.03;5010806;27;20149;-80
2021/12/04 05:34:27;;;;;;;;;;;;;;;3.38;90.35;99141.81;5012296;27;20298;-79
2021/12/04 05:36:52;;;;;;;;;;;;;;;3.36;90.73;99133.31;5009650;27;20319;-76
2021/12/04 05:39:17;;;;;;;;;;;;;;;3.37;90.15;99141.00;5008102;27;20054;-79
2021/12/04 05:41:43;;;;;;;;;;;;;;;3.36;90.06;99136.72;5009132;27;19949;-77
2021/12/04 05:44:09;;;;;;;;;;;;;;;3.39;90.50;99131.25;5028667;27;19969;-77
2021/12/04 05:46:41;;;;;;;;;;;;;;;3.40;90.46;99135.53;5011234;27;19931;-80
2021/12/04 05:49:15;;;;;;;;;;;;;;;3.43;90.22;99137.03;4995567;27;20080;-77
2021/12/04 05:54:43;;;;;;;;;;;;;;;3.41;90.66;99128.50;5011473;27;20250;-79
2021/12/04 05:57:09;;;;;;;;;;;;;;;3.42;90.32;99133.59;5008834;27;20384;-77
2021/12/04 05:59:34;;;;;;;;;;;;;;;3.46;90.12;99143.81;4993269;27;19903;-79
2021/12/04 06:01:59;;;;;;;;;;;;;;;3.49;89.67;99144.34;5009874;27;20321;-79
2021/12/04 06:04:25;;;;;;;;;;;;;;;3.50;89.60;99139.94;5009346;27;20288;-79
2021/12/04 06:06:50;;;;;;;;;;;;;;;3.52;89.72;99138.84;4992721;27;20317;-79
2021/12/04 06:09:15;;;;;;;;;;;;;;;3.48;89.37;99142.69;5003923;27;19919;-78
2021/12/04 06:11:40;;;;;;;;;;;;;;;3.42;89.37;99133.59;5006833;27;20314;-77
2021/12/04 06:14:06;;;;;;;;;;;;;;;3.48;89.28;99141.88;5005535;27;20290;-77
2021/12/04 06:16:31;;;;;;;;;;;;;;;3.53;89.78;99137.09;5007213;27;20320;-77
2021/12/04 06:18:58;;;;;;;;;;;;;;;3.51;89.72;99136.38;4992343;27;20317;-79
2021/12/04 06:24:07;;;;;;;;;;;;;;;3.46;89.15;99139.41;5010812;27;19942;-77
2021/12/04 06:26:33;;;;;;;;;;;;;;;3.46;89.44;99138.56;5008672;27;20339;-77
2021/12/04 06:28:58;;;;;;;;;;;;;;;3.47;89.67;99132.38;5007747;27;20415;-77
2021/12/04 06:31:24;;;;;;;;;;;;;;;3.50;89.66;99139.94;4991571;27;20113;-77
2021/12/04 06:33:50;;;;;;;;;;;;;;;3.44;89.93;99126.47;5007706;27;20243;-77
2021/12/04 06:36:15;;;;;;;;;;;;;;;3.53;89.83;99124.00;4997893;28;19955;-77
2021/12/04 06:38:40;;;;;;;;;;;;;;;3.50;89.81;99124.25;5007283;27;19912;-77
2021/12/04 06:41:05;;;;;;;;;;;;;;;3.57;89.74;99125.41;5004525;28;19908;-78
2021/12/04 06:43:31;;;;;;;;;;;;;;;3.51;89.48;99123.31;5008161;28;20389;-78
2021/12/04 06:46:00;;;;;;;;;;;;;;;3.54;89.56;99130.88;5007742;28;20249;-77
2021/12/04 06:48:33;;;;;;;;;;;;;;;3.54;89.01;99142.19;5009357;28;19904;-78
2021/12/04 06:52:02;;;;;;;;;;;;;;;3.55;89.18;99133.38;4991834;28;19900;-77
2021/12/04 06:54:10;;;;;;;;;;;;;;;3.49;88.87;99128.66;5002507;28;20308;-77
2021/12/04 06:56:37;;;;;;;;;;;;;;;3.50;89.00;99130.34;4990158;28;19899;-77
2021/12/04 06:59:08;;;;;;;;;;;;;;;3.48;89.23;99124.38;5006540;28;20084;-77
2021/12/04 07:01:33;;;;;;;;;;;;;;;3.47;89.61;99125.38;4989457;28;19992;-77
2021/12/04 07:03:59;;;;;;;;;;;;;;;3.48;89.06;99128.81;5004995;28;19904;-77
2021/12/04 07:06:24;;;;;;;;;;;;;;;3.48;89.10;99141.88;4989367;28;20344;-79
2021/12/04 07:08:49;;;;;;;;;;;;;;;3.54;88.94;99134.34;5005809;28;19980;-79
2021/12/04 07:11:14;;;;;;;;;;;;;;;3.54;88.89;99131.72;4992779;28;20045;-78
2021/12/04 07:13:39;;;;;;;;;;;;;;;3.52;88.60;99132.81;5011404;28;19930;-79
2021/12/04 07:16:06;;;;;;;;;;;;;;;3.49;88.61;99126.06;5009063;28;20012;-79
2021/12/04 07:18:32;;;;;;;;;;;;;;;3.56;88.85;99126.38;5007933;28;20004;-76
2021/12/04 07:20:57;;;;;;;;;;;;;;;3.57;88.62;99130.63;5005989;27;20776;-76
2021/12/04 07:23:22;;;;;;;;;;;;;;;3.56;88.31;99128.97;5026666;27;19944;-77
2021/12/04 07:25:47;;;;;;;;;;;;;;;3.56;88.17;99121.13;5026167;27;20286;-77
2021/12/04 07:28:13;;;;;;;;;;;;;;;3.54;87.74;99120.41;5003702;27;20020;-76
2021/12/04 07:30:38;;;;;;;;;;;;;;;3.53;88.03;99124.00;5002780;28;20147;-76
2021/12/04 07:33:03;;;;;;;;;;;;;;;3.50;88.24;99125.09;4982377;27;20006;-77
2021/12/04 07:35:28;;;;;;;;;;;;;;;3.56;88.31;99126.38;5007984;27;19940;-77
2021/12/04 07:37:54;;;;;;;;;;;;;;;3.56;88.37;99121.94;5008483;27;19987;-77
2021/12/04 07:40:19;;;;;;;;;;;;;;;3.59;88.45;99119.06;5008088;27;20219;-77
2021/12/04 07:42:44;;;;;;;;;;;;;;;3.50;88.04;99119.88;5005711;27;20577;-78
2021/12/04 07:45:09;;;;;;;;;;;;;;;3.53;88.31;99121.41;5009861;27;20121;-77
2021/12/04 07:47:35;;;;;;;;;;;;;;;3.55;88.68;99111.63;4992035;27;20620;-77
2021/12/04 07:50:01;;;;;;;;;;;;;;;3.63;88.09;99117.03;5007678;27;20723;-77
2021/12/04 07:52:26;;;;;;;;;;;;;;;3.64;87.77;99110.84;5007089;27;19921;-77
2021/12/04 07:54:52;;;;;;;;;;;;;;;3.60;88.24;99115.50;4988707;27;19912;-77
2021/12/04 07:57:17;;;;;;;;;;;;;;;3.61;88.06;99111.13;5007411;27;19912;-77
2021/12/04 07:59:42;;;;;;;;;;;;;;;3.61;87.87;99113.72;4994975;28;20075;-76
2021/12/04 08:02:07;;;;;;;;;;;;;;;3.70;87.67;99115.53;4987248;27;20142;-76
2021/12/04 08:04:32;;;;;;;;;;;;;;;3.67;87.21;99115.81;4990353;27;20734;-76
2021/12/04 08:06:58;;;;;;;;;;;;;;;3.68;87.56;99116.63;5005969;27;20732;-76
2021/12/04 08:09:23;;;;;;;;;;;;;;;3.70;87.23;99118.16;4989391;27;20095;-76
2021/12/04 08:11:50;;;;;;;;;;;;;;;3.71;87.05;99122.44;4993108;28;20016;-76
2021/12/04 08:14:15;;;;;;;;;;;;;;;3.70;87.21;99123.38;4988228;28;20414;-76
2021/12/04 08:16:41;;;;;;;;;;;;;;;3.65;86.96;99117.69;5007527;27;20787;-76
2021/12/04 08:19:06;;;;;;;;;;;;;;;3.68;87.36;99112.22;5009527;27;20761;-75
2021/12/04 08:21:31;;;;;;;;;;;;;;;3.68;87.65;99114.84;5007044;27;19904;-78
2021/12/04 08:23:57;;;;;;;;;;;;;;;3.76;87.53;99112.38;5013513;27;20233;-78
2021/12/04 08:26:22;;;;;;;;;;;;;;;3.70;87.04;99119.94;4994133;27;20005;-78
2021/12/04 08:28:47;;;;;;;;;;;;;;;3.68;87.54;99122.69;4995955;27;20020;-77
2021/12/04 08:31:12;;;;;;;;;;;;;;;3.69;86.66;99119.09;4997098;27;20432;-78
2021/12/04 08:33:37;;;;;;;;;;;;;;;3.73;87.08;99117.88;4997943;27;20236;-78
2021/12/04 08:36:04;;;;;;;;;;;;;;;3.75;86.91;99123.81;4987243;27;20514;-77
2021/12/04 08:38:29;;;;;;;;;;;;;;;3.80;86.78;99109.50;4958238;27;19915;-79
2021/12/04 08:40:54;;;;;;;;;;;;;;;3.85;86.62;99118.63;4981690;27;19892;-80
2021/12/04 08:43:20;;;;;;;;;;;;;;;3.85;86.88;99109.91;4985529;27;19923;-78
2021/12/04 08:45:45;;;;;;;;;;;;;;;3.97;86.37;99106.22;4975203;27;19923;-77
2021/12/04 08:48:10;;;;;;;;;;;;;;;4.58;89.69;99096.47;4959791;27;20279;-80
2021/12/04 08:50:36;;;;;;;;;;;;;;;4.56;84.86;99095.81;4950224;27;20463;-78
2021/12/04 08:53:01;;;;;;;;;;;;;;;4.67;83.81;99103.53;4956574;27;20329;-77
2021/12/04 08:55:28;;;;;;;;;;;;;;;4.57;83.37;99094.81;4955554;27;19904;-80
2021/12/04 08:57:53;;;;;;;;;;;;;;;4.43;83.88;99094.28;4952616;27;20344;-80
2021/12/04 09:00:20;;;;;;;;;;;;;;;4.47;84.09;99082.56;4965950;27;20303;-79
2021/12/04 09:02:46;;;;;;;;;;;;;;;4.51;83.56;99079.66;4940969;27;20028;-78
2021/12/04 09:05:11;;;;;;;;;;;;;;;4.38;82.99;99077.34;5004020;27;19919;-79
2021/12/04 09:07:36;;;;;;;;;;;;;;;4.51;83.46;99077.06;5006852;27;20241;-79
2021/12/04 09:10:02;;;;;;;;;;;;;;;4.65;83.75;99084.47;4989466;27;20229;-79
2021/12/04 09:12:27;;;;;;;;;;;;;;;4.84;82.63;99093.28;5001846;28;20267;-78
2021/12/04 09:14:52;;;;;;;;;;;;;;;4.94;82.04;99094.91;5004763;28;20383;-79
2021/12/04 09:17:18;;;;;;;;;;;;;;;5.21;80.93;99095.13;4993983;28;20421;-78
2021/12/04 09:19:43;;;;;;;;;;;;;;;5.29;80.33;99092.63;4974498;28;20328;-79
2021/12/04 09:22:14;;;;;;;;;;;;;;;5.33;80.30;99089.56;4992450;28;19952;-78
2021/12/04 09:24:42;;;;;;;;;;;;;;;5.37;79.56;99089.28;4996659;28;19991;-77
2021/12/04 10:02:41;;;;;;;;;;;;;;;8.43;68.72;99038.50;4976730;28;20175;-79
2021/12/04 10:18:23;;;;;;;;;;;;;;;6.35;73.13;99010.75;5006883;27;20226;-78
2021/12/04 10:33:49;;;;;;;;;;;;;;;6.66;72.60;98990.09;4946330;27;20487;-76
2021/12/04 10:36:25;;;;;;;;;;;;;;;7.13;72.90;98977.50;4947762;28;19915;-76
2021/12/04 10:38:50;;;;;;;;;;;;;;;7.22;70.28;98969.50;4956679;28;20252;-76
2021/12/04 10:41:16;;;;;;;;;;;;;;;7.47;69.72;98952.97;4940042;28;20862;-77
2021/12/04 10:43:41;;;;;;;;;;;;;;;7.89;68.60;98950.22;4965528;28;19963;-78
2021/12/04 10:46:14;;;;;;;;;;;;;;;8.21;67.80;98945.13;4958425;28;19964;-78
2021/12/04 10:48:48;;;;;;;;;;;;;;;8.22;67.44;98931.78;4968878;28;20240;-78
2021/12/04 10:51:36;;;;;;;;;;;;;;;8.04;68.89;98939.84;4968487;28;20059;-78
2021/12/04 10:54:23;;;;;;;;;;;;;;;7.61;68.62;98933.09;4981785;28;19968;-78
2021/12/04 10:59:52;;;;;;;;;;;;;;;7.44;70.60;98913.81;4942892;27;19911;-77
2021/12/04 11:02:26;;;;;;;;;;;;;;;7.15;71.77;98909.78;4969234;27;20173;-78
2021/12/04 11:05:36;;;;;;;;;;;;;;;7.04;71.59;98908.28;4952496;27;20438;-78
2021/12/04 11:19:22;;;;;;;;;;;;;;;6.94;72.91;98878.66;4929896;28;19908;-77
2021/12/04 11:22:02;;;;;;;;;;;;;;;6.79;72.51;98879.25;4969868;28;20300;-77
2021/12/04 11:27:50;;;;;;;;;;;;;;;6.76;73.50;98868.25;4961041;28;20654;-76
2021/12/04 11:40:56;;;;;;;;;;;;;;;6.31;71.96;98857.84;4978645;27;20012;-77
2021/12/04 11:43:23;;;;;;;;;;;;;;;6.33;72.88;98836.69;4962749;27;19919;-76
2021/12/04 11:48:15;;;;;;;;;;;;;;;5.93;74.66;98823.13;4999994;27;20436;-77
2021/12/04 11:50:41;;;;;;;;;;;;;;;5.90;75.18;98817.38;4991833;27;20095;-77
2021/12/04 11:53:09;;;;;;;;;;;;;;;5.75;74.67;98817.91;4999543;27;19930;-78
2021/12/04 11:55:35;;;;;;;;;;;;;;;5.62;76.49;98807.00;5005344;27;20320;-78
2021/12/04 11:58:00;;;;;;;;;;;;;;;5.70;77.58;98816.72;4998784;27;19997;-76
2021/12/04 12:00:30;;;;;;;;;;;;;;;6.04;76.04;98823.91;5007956;27;19991;-78
2021/12/04 12:03:09;;;;;;;;;;;;;;;5.98;75.63;98814.84;5001329;27;20176;-78
2021/12/04 12:05:42;;;;;;;;;;;;;;;6.12;76.01;98787.16;4999558;27;20491;-78
2021/12/04 12:08:07;;;;;;;;;;;;;;;5.89;75.77;98789.47;4991513;27;20320;-78
2021/12/04 12:10:34;;;;;;;;;;;;;;;5.94;75.92;98800.34;5004904;27;19927;-78
2021/12/04 12:13:06;;;;;;;;;;;;;;;6.17;75.29;98788.34;4990715;27;20001;-78
2021/12/04 12:15:33;;;;;;;;;;;;;;;6.42;74.92;98791.09;5008172;27;19915;-77
2021/12/04 12:18:11;;;;;;;;;;;;;;;6.36;73.62;98779.41;4991902;27;19987;-77
2021/12/04 12:21:11;;;;;;;;;;;;;;;6.40;75.92;98753.63;4991556;27;19911;-77
2021/12/04 12:23:32;;;;;;;;;;;;;;;6.70;74.55;98756.69;5007830;27;19911;-78
2021/12/04 12:36:02;;;;;;;;;;;;;;;6.15;75.47;98743.03;5019373;27;20374;-78
2021/12/04 12:37:21;;;;;;;;;;;;;;;5.98;75.99;98741.34;5006227;27;20452;-77
2021/12/04 12:39:51;;;;;;;;;;;;;;;6.12;75.91;98751.25;5000805;27;20028;-78
2021/12/04 12:42:42;;;;;;;;;;;;;;;6.30;76.58;98740.66;5007554;27;19904;-77
2021/12/04 12:45:17;;;;;;;;;;;;;;;6.72;75.63;98733.69;5020101;27;19961;-77
2021/12/04 12:47:49;;;;;;;;;;;;;;;6.61;74.59;98726.09;5003201;27;20265;-75
2021/12/04 12:50:28;;;;;;;;;;;;;;;6.49;75.20;98715.09;5002581;27;20300;-75
2021/12/04 12:53:19;;;;;;;;;;;;;;;6.47;74.17;98709.16;4988942;27;20528;-75
2021/12/04 12:55:47;;;;;;;;;;;;;;;6.40;75.12;98714.22;4946483;27;20786;-76
2021/12/04 12:58:19;;;;;;;;;;;;;;;6.18;75.93;98713.84;4937026;27;19911;-75
2021/12/04 13:11:54;;;;;;;;;;;;;;;5.93;76.97;98722.56;4998923;27;20031;-76
2021/12/04 13:14:25;;;;;;;;;;;;;;;6.55;76.18;98716.25;5004592;27;19968;-76
2021/12/04 13:17:00;;;;;;;;;;;;;;;6.50;75.57;98720.19;4993671;28;20799;-77
2021/12/04 13:19:26;;;;;;;;;;;;;;;6.62;76.09;98723.31;4975516;28;20018;-77
2021/12/04 13:21:52;;;;;;;;;;;;;;;6.35;75.18;98722.59;4953689;27;20015;-76
2021/12/04 13:24:17;;;;;;;;;;;;;;;6.64;75.31;98728.41;4971742;27;20613;-76
2021/12/04 13:26:44;;;;;;;;;;;;;;;6.84;76.49;98739.47;4944086;27;20273;-76
2021/12/04 13:29:09;;;;;;;;;;;;;;;6.43;76.80;98740.19;4934272;27;20271;-75
2021/12/04 13:31:38;;;;;;;;;;;;;;;6.53;77.87;98740.88;4969649;27;20099;-77
2021/12/04 13:34:03;;;;;;;;;;;;;;;6.36;77.00;98744.44;4982628;27;19907;-77
2021/12/04 13:36:29;;;;;;;;;;;;;;;6.45;78.31;98738.22;5005273;27;20353;-78
2021/12/04 13:38:58;;;;;;;;;;;;;;;6.24;78.77;98745.72;5022869;27;20184;-78
2021/12/04 13:41:23;;;;;;;;;;;;;;;6.32;78.28;98743.94;4976290;28;19993;-77
2021/12/04 13:43:58;;;;;;;;;;;;;;;6.41;79.51;98733.44;5001979;27;19935;-78
2021/12/04 13:46:24;;;;;;;;;;;;;;;6.49;79.41;98731.66;5000555;27;20256;-77
2021/12/04 13:48:49;;;;;;;;;;;;;;;6.71;79.42;98729.41;5007893;27;20214;-78
2021/12/04 13:51:14;;;;;;;;;;;;;;;6.78;78.95;98717.28;4989773;27;20253;-78
2021/12/04 13:53:40;;;;;;;;;;;;;;;6.78;79.16;98722.53;5005098;27;20416;-77
2021/12/04 13:56:06;;;;;;;;;;;;;;;6.87;80.66;98718.91;4983293;28;20125;-77
2021/12/04 13:58:32;;;;;;;;;;;;;;;6.64;78.77;98726.63;4984129;28;20176;-74
2021/12/04 14:00:58;;;;;;;;;;;;;;;6.61;79.29;98716.41;4982588;28;19996;-78
2021/12/04 14:03:24;;;;;;;;;;;;;;;6.75;80.43;98716.78;4983327;28;20801;-80
2021/12/04 14:05:50;;;;;;;;;;;;;;;6.60;80.60;98713.94;4982636;28;20297;-78
2021/12/04 14:08:15;;;;;;;;;;;;;;;6.44;80.37;98705.03;4983386;28;20269;-76
2021/12/04 14:10:42;;;;;;;;;;;;;;;6.36;80.79;98712.91;4981774;28;19919;-78
2021/12/04 14:13:07;;;;;;;;;;;;;;;6.42;80.90;98716.72;4987286;27;19919;-78
2021/12/04 14:15:33;;;;;;;;;;;;;;;6.36;81.07;98707.66;4996209;27;20528;-79
2021/12/04 14:17:59;;;;;;;;;;;;;;;6.43;80.74;98706.03;5004469;27;20690;-78
2021/12/04 14:20:24;;;;;;;;;;;;;;;6.33;81.68;98710.59;4982148;27;20322;-78
2021/12/04 14:22:50;;;;;;;;;;;;;;;6.41;81.30;98717.69;4977370;28;19908;-78
2021/12/04 14:25:16;;;;;;;;;;;;;;;6.32;80.89;98722.91;5008355;27;20226;-78
2021/12/04 14:27:41;;;;;;;;;;;;;;;6.33;81.07;98721.94;4969360;28;20045;-76
2021/12/04 14:30:10;;;;;;;;;;;;;;;6.49;81.86;98729.03;4992820;27;19920;-79
2021/12/04 14:32:37;;;;;;;;;;;;;;;6.45;80.82;98726.91;4967242;27;20032;-76
2021/12/04 14:35:06;;;;;;;;;;;;;;;6.29;81.05;98732.91;4982266;28;20242;-79
2021/12/04 14:37:32;;;;;;;;;;;;;;;6.45;81.78;98734.78;5008983;27;19935;-79
2021/12/04 14:39:57;;;;;;;;;;;;;;;6.28;81.31;98732.09;5004982;28;19935;-79
2021/12/04 14:42:25;;;;;;;;;;;;;;;6.39;81.87;98741.50;5021505;27;20596;-77
2021/12/04 14:44:54;;;;;;;;;;;;;;;6.39;81.45;98745.91;5010725;28;20290;-78
2021/12/04 14:47:21;;;;;;;;;;;;;;;6.34;81.20;98749.03;5019628;28;20292;-78
2021/12/04 14:49:46;;;;;;;;;;;;;;;6.40;81.45;98758.06;4993220;28;19996;-78
2021/12/04 14:52:18;;;;;;;;;;;;;;;6.36;81.72;98758.38;5000626;28;19975;-78
2021/12/04 14:54:44;;;;;;;;;;;;;;;6.34;81.71;98762.16;4974920;28;20397;-78
2021/12/04 14:57:13;;;;;;;;;;;;;;;6.17;81.66;98767.31;4983149;28;19926;-77
2021/12/04 14:59:38;;;;;;;;;;;;;;;6.22;81.66;98787.88;5017183;28;19918;-77
2021/12/04 15:02:11;;;;;;;;;;;;;;;6.32;81.96;98791.22;5006966;28;20718;-77
2021/12/04 15:04:40;;;;;;;;;;;;;;;6.17;82.31;98790.97;4981914;27;20725;-78
2021/12/04 15:07:05;;;;;;;;;;;;;;;6.19;82.50;98807.41;4971474;28;20004;-80
2021/12/04 15:09:31;;;;;;;;;;;;;;;6.35;82.50;98811.09;5004011;27;19934;-77
2021/12/04 15:11:58;;;;;;;;;;;;;;;6.35;81.79;98811.09;4991128;27;20359;-77
2021/12/04 15:14:32;;;;;;;;;;;;;;;6.16;81.94;98814.75;5031916;27;20329;-76
2021/12/04 15:17:01;;;;;;;;;;;;;;;6.25;82.30;98821.72;5007287;28;20345;-77
2021/12/04 15:19:48;;;;;;;;;;;;;;;6.35;81.61;98816.34;5006540;28;20396;-76
2021/12/04 15:22:14;;;;;;;;;;;;;;;6.46;81.70;98812.63;4993451;28;20219;-77
2021/12/04 15:24:42;;;;;;;;;;;;;;;6.42;81.58;98817.34;5015712;28;19903;-77
2021/12/04 15:27:08;;;;;;;;;;;;;;;6.48;81.83;98824.59;5011544;27;20269;-76
2021/12/04 15:29:34;;;;;;;;;;;;;;;6.62;81.43;98831.06;4994994;28;19915;-78
2021/12/04 15:32:00;;;;;;;;;;;;;;;6.67;81.12;98835.84;5012895;28;19915;-77
2021/12/04 15:34:30;;;;;;;;;;;;;;;6.43;81.58;98836.56;4983849;28;19918;-77
2021/12/04 15:37:00;;;;;;;;;;;;;;;6.66;81.08;98848.16;5013898;27;19910;-77
2021/12/04 15:39:34;;;;;;;;;;;;;;;6.24;82.60;98850.75;5006380;28;20318;-77
2021/12/04 15:53:09;;;;;;;;;;;;;;;5.48;85.10;98871.34;4987350;27;20150;-76
2021/12/04 15:55:37;;;;;;;;;;;;;;;5.37;85.05;98868.94;4967106;27;19915;-79
2021/12/04 15:58:21;;;;;;;;;;;;;;;5.24;84.50;98875.38;4980740;27;19915;-77
2021/12/04 16:00:53;;;;;;;;;;;;;;;5.15;85.40;98884.16;4971978;27;19908;-79
2021/12/04 16:03:23;;;;;;;;;;;;;;;5.06;86.18;98898.13;4990743;27;19926;-79
2021/12/04 16:05:52;;;;;;;;;;;;;;;5.00;87.15;98899.53;5003308;27;20336;-77
2021/12/04 16:08:18;;;;;;;;;;;;;;;4.90;87.65;98906.63;4993221;27;20278;-77
2021/12/04 16:10:44;;;;;;;;;;;;;;;4.96;88.13;98914.75;4997989;27;20184;-77